| time (UTC) | temp C | wind direction | speed KPH | gust KPH | rain 1hr cm | rain 24hr cm | rain mn cm | humidity % | barometer mb |
| 20260502162147 | 16 | 299 | 19.3 | 20.9 | 0.00 | 0.00 | 0.00 | 36 | 1065.4 |
| 20260502161644 | 16 | 290 | 11.3 | 17.7 | 0.00 | 0.00 | 0.00 | 36 | 1065.4 |
| 20260502161140 | 16 | 295 | 16.1 | 19.3 | 0.00 | 0.00 | 0.00 | 36 | 1065.5 |
| 20260502160638 | 16 | 298 | 14.5 | 20.9 | 0.00 | 0.00 | 0.00 | 36 | 1065.4 |
| 20260502160137 | 15 | 287 | 14.5 | 22.5 | 0.00 | 0.00 | 0.00 | 37 | 1065.4 |
| 20260502152051 | 14 | 268 | 22.5 | 27.4 | 0.00 | 0.00 | 0.00 | 37 | 1065.8 |
| 20260502151548 | 13 | 271 | 19.3 | 24.1 | 0.00 | 0.00 | 0.00 | 37 | 1066.2 |
| 20260502151046 | 13 | 276 | 17.7 | 20.9 | 0.00 | 0.00 | 0.00 | 38 | 1066.2 |
| 20260502150543 | 13 | 283 | 17.7 | 24.1 | 0.00 | 0.00 | 0.00 | 38 | 1066.1 |
| 20260502130428 | 9 | 97 | 3.2 | 4.8 | 0.00 | 0.00 | 0.00 | 50 | 1067.4 |
| 20260502123410 | 8 | 77 | 4.8 | 4.8 | 0.00 | 0.00 | 0.00 | 53 | 1067.5 |
| 20260502122908 | 8 | 84 | 4.8 | 6.4 | 0.00 | 0.00 | 0.00 | 52 | 1067.6 |
| 20260502122404 | 8 | 197 | 0.0 | 6.4 | 0.00 | 0.00 | 0.00 | 51 | 1067.4 |
| 20260502121902 | 8 | 142 | 3.2 | 6.4 | 0.00 | 0.00 | 0.00 | 51 | 1067.1 |
| 20260502121359 | 8 | 146 | 9.7 | 14.5 | 0.00 | 0.00 | 0.00 | 51 | 1067.2 |
| 20260502120856 | 8 | 147 | 6.4 | 9.7 | 0.00 | 0.00 | 0.00 | 52 | 1067.2 |
| 20260502120352 | 8 | 111 | 3.2 | 4.8 | 0.00 | 0.00 | 0.00 | 51 | 1067.4 |
| 20260502115850 | 8 | 83 | 3.2 | 6.4 | 0.00 | 0.00 | 0.00 | 51 | 1067.6 |
| 20260502115347 | 7 | 146 | 8.0 | 9.7 | 0.00 | 0.00 | 0.00 | 53 | 1068.0 |
| 20260502114843 | 7 | 75 | 1.6 | 4.8 | 0.00 | 0.00 | 0.00 | 53 | 1067.9 |
| 20260502114340 | 8 | 117 | 3.2 | 6.4 | 0.00 | 0.00 | 0.00 | 51 | 1068.0 |
| 20260502113837 | 8 | 105 | 3.2 | 4.8 | 0.00 | 0.00 | 0.00 | 50 | 1068.0 |
| 20260502113335 | 8 | 93 | 3.2 | 6.4 | 0.00 | 0.00 | 0.00 | 50 | 1068.1 |
| 20260502112833 | 8 | 137 | 3.2 | 6.4 | 0.00 | 0.00 | 0.00 | 50 | 1068.1 |
| 20260502112330 | 8 | 238 | 4.8 | 11.3 | 0.00 | 0.00 | 0.00 | 49 | 1068.4 |
| 20260502111827 | 7 | 244 | 6.4 | 9.7 | 0.00 | 0.00 | 0.00 | 53 | 1068.2 |
| 20260502111325 | 6 | 125 | 3.2 | 6.4 | 0.00 | 0.00 | 0.00 | 54 | 1068.4 |
| 20260502110822 | 6 | 57 | 3.2 | 4.8 | 0.00 | 0.00 | 0.00 | 54 | 1068.2 |
| 20260502110320 | 6 | 102 | 4.8 | 6.4 | 0.00 | 0.00 | 0.00 | 54 | 1068.6 |
| 20260502105817 | 6 | 76 | 4.8 | 4.8 | 0.00 | 0.00 | 0.00 | 53 | 1068.8 |
| 20260502105314 | 6 | 99 | 6.4 | 6.4 | 0.00 | 0.00 | 0.00 | 53 | 1068.7 |
| 20260502104812 | 6 | 88 | 4.8 | 6.4 | 0.00 | 0.00 | 0.00 | 53 | 1068.6 |
| 20260502104309 | 6 | 97 | 3.2 | 8.0 | 0.00 | 0.00 | 0.00 | 53 | 1068.6 |
| 20260502103806 | 6 | 88 | 4.8 | 9.7 | 0.00 | 0.00 | 0.00 | 53 | 1068.7 |
| 20260502103303 | 6 | 93 | 3.2 | 8.0 | 0.00 | 0.00 | 0.00 | 53 | 1068.7 |
| 20260502102801 | 6 | 88 | 6.4 | 6.4 | 0.00 | 0.00 | 0.00 | 53 | 1068.8 |
| 20260502102257 | 7 | 101 | 4.8 | 6.4 | 0.00 | 0.00 | 0.00 | 51 | 1068.7 |
| 20260502101755 | 7 | 99 | 4.8 | 6.4 | 0.00 | 0.00 | 0.00 | 50 | 1068.7 |
| 20260502101253 | 7 | 112 | 0.0 | 6.4 | 0.00 | 0.00 | 0.00 | 49 | 1068.8 |
| 20260502100750 | 7 | 118 | 3.2 | 4.8 | 0.00 | 0.00 | 0.00 | 49 | 1068.8 |
| 20260502100249 | 7 | 147 | 3.2 | 6.4 | 0.00 | 0.00 | 0.00 | 49 | 1068.8 |
| 20260502091223 | 7 | 78 | 3.2 | 4.8 | 0.00 | 0.00 | 0.00 | 48 | 1069.6 |
| 20260502090721 | 7 | 124 | 1.6 | 3.2 | 0.00 | 0.00 | 0.00 | 48 | 1069.5 |
| 20260502090217 | 7 | 199 | 0.0 | 1.6 | 0.00 | 0.00 | 0.00 | 48 | 1069.9 |
| 20260502071113 | 8 | 176 | 6.4 | 8.0 | 0.00 | 0.00 | 0.00 | 43 | 1070.2 |
| 20260502070611 | 8 | 106 | 1.6 | 6.4 | 0.00 | 0.00 | 0.00 | 43 | 1070.5 |
| 20260502070108 | 8 | 136 | 6.4 | 6.4 | 0.00 | 0.00 | 0.00 | 43 | 1070.5 |
| 20260502065606 | 8 | 158 | 6.4 | 9.7 | 0.00 | 0.00 | 0.00 | 42 | 1070.4 |
| 20260502065104 | 8 | 163 | 3.2 | 4.8 | 0.00 | 0.00 | 0.00 | 43 | 1070.4 |
| 20260502064602 | 7 | 173 | 3.2 | 4.8 | 0.00 | 0.00 | 0.00 | 44 | 1070.5 |
| 20260502064059 | 7 | 191 | 0.0 | 3.2 | 0.00 | 0.00 | 0.00 | 45 | 1070.8 |
| 20260502063557 | 7 | 92 | 3.2 | 3.2 | 0.00 | 0.00 | 0.00 | 45 | 1070.7 |
| 20260502063054 | 7 | 146 | 4.8 | 8.0 | 0.00 | 0.00 | 0.00 | 46 | 1070.7 |
| 20260502062551 | 6 | 100 | 4.8 | 6.4 | 0.00 | 0.00 | 0.00 | 47 | 1071.0 |
| 20260502062049 | 6 | 96 | 4.8 | 8.0 | 0.00 | 0.00 | 0.00 | 48 | 1070.9 |
| 20260502061547 | 6 | 92 | 6.4 | 6.4 | 0.00 | 0.00 | 0.00 | 48 | 1071.1 |
| 20260502061044 | 6 | 98 | 4.8 | 6.4 | 0.00 | 0.00 | 0.00 | 47 | 1071.1 |
| 20260502060539 | 6 | 89 | 8.0 | 8.0 | 0.00 | 0.00 | 0.00 | 46 | 1071.1 |
| 20260502060036 | 7 | 80 | 6.4 | 8.0 | 0.00 | 0.00 | 0.00 | 45 | 1071.1 |
| 20260502055533 | 7 | 103 | 6.4 | 8.0 | 0.00 | 0.00 | 0.00 | 43 | 1071.1 |
| 20260502055032 | 7 | 103 | 4.8 | 8.0 | 0.00 | 0.00 | 0.00 | 43 | 1071.3 |
| 20260502054530 | 7 | 114 | 6.4 | 8.0 | 0.00 | 0.00 | 0.00 | 43 | 1071.2 |
| 20260502054027 | 7 | 75 | 6.4 | 8.0 | 0.00 | 0.00 | 0.00 | 44 | 1071.1 |
| 20260502053524 | 7 | 91 | 6.4 | 9.7 | 0.00 | 0.00 | 0.00 | 44 | 1071.2 |
| 20260502053022 | 7 | 83 | 9.7 | 11.3 | 0.00 | 0.00 | 0.00 | 44 | 1071.1 |
| 20260502052520 | 7 | 97 | 6.4 | 8.0 | 0.00 | 0.00 | 0.00 | 43 | 1071.2 |
| 20260502052018 | 8 | 98 | 3.2 | 4.8 | 0.00 | 0.00 | 0.00 | 41 | 1071.1 |
| 20260502051516 | 9 | 98 | 6.4 | 6.4 | 0.00 | 0.00 | 0.00 | 40 | 1071.0 |
| 20260502051013 | 8 | 98 | 4.8 | 4.8 | 0.00 | 0.00 | 0.00 | 41 | 1071.2 |
| 20260502050509 | 9 | 86 | 3.2 | 4.8 | 0.00 | 0.00 | 0.00 | 40 | 1071.3 |
| 20260502050006 | 8 | 105 | 3.2 | 3.2 | 0.00 | 0.00 | 0.00 | 42 | 1071.3 |
| 20260502045503 | 8 | 137 | 6.4 | 6.4 | 0.00 | 0.00 | 0.00 | 43 | 1071.4 |
| 20260502045000 | 8 | 111 | 3.2 | 3.2 | 0.00 | 0.00 | 0.00 | 42 | 1071.3 |
| 20260502044455 | 8 | 89 | 4.8 | 6.4 | 0.00 | 0.00 | 0.00 | 41 | 1071.3 |
| 20260502043953 | 8 | 80 | 4.8 | 6.4 | 0.00 | 0.00 | 0.00 | 40 | 1071.4 |
| 20260502043450 | 9 | 76 | 4.8 | 4.8 | 0.00 | 0.00 | 0.00 | 39 | 1071.3 |
| 20260502042949 | 8 | 86 | 3.2 | 4.8 | 0.00 | 0.00 | 0.00 | 40 | 1071.4 |
| 20260502042447 | 9 | 92 | 4.8 | 4.8 | 0.00 | 0.00 | 0.00 | 39 | 1071.5 |
| 20260502041944 | 9 | 83 | 3.2 | 4.8 | 0.00 | 0.00 | 0.00 | 38 | 1071.4 |
| 20260502041442 | 9 | 89 | 4.8 | 4.8 | 0.00 | 0.00 | 0.00 | 39 | 1071.5 |
| 20260502040939 | 9 | 83 | 3.2 | 4.8 | 0.00 | 0.00 | 0.00 | 38 | 1071.6 |
| 20260502040435 | 9 | 86 | 3.2 | 3.2 | 0.00 | 0.00 | 0.00 | 38 | 1071.6 |
| 20260502035932 | 10 | 92 | 3.2 | 4.8 | 0.00 | 0.00 | 0.00 | 37 | 1071.5 |
| 20260502035428 | 10 | 91 | 3.2 | 4.8 | 0.00 | 0.00 | 0.00 | 37 | 1071.6 |
| 20260502034926 | 10 | 37 | 1.6 | 3.2 | 0.00 | 0.00 | 0.00 | 37 | 1071.7 |
| 20260502034425 | 10 | 86 | 3.2 | 4.8 | 0.00 | 0.00 | 0.00 | 36 | 1071.7 |
| 20260502033922 | 10 | 130 | 0.0 | 0.0 | 0.00 | 0.00 | 0.00 | 35 | 1071.5 |
| 20260502033420 | 10 | 76 | 3.2 | 3.2 | 0.00 | 0.00 | 0.00 | 35 | 1071.7 |
| 20260502032916 | 10 | 80 | 1.6 | 3.2 | 0.00 | 0.00 | 0.00 | 35 | 1071.7 |
| 20260502032413 | 11 | 72 | 1.6 | 3.2 | 0.00 | 0.00 | 0.00 | 34 | 1071.8 |
| 20260502031910 | 10 | 40 | 1.6 | 1.6 | 0.00 | 0.00 | 0.00 | 35 | 1071.9 |
| 20260502031408 | 10 | 11 | 0.0 | 3.2 | 0.00 | 0.00 | 0.00 | 35 | 1071.7 |
| 20260502030906 | 10 | 73 | 0.0 | 3.2 | 0.00 | 0.00 | 0.00 | 35 | 1071.7 |
| 20260502030404 | 11 | 85 | 3.2 | 3.2 | 0.00 | 0.00 | 0.00 | 35 | 1071.6 |
| 20260502025902 | 11 | 55 | 0.0 | 3.2 | 0.00 | 0.00 | 0.00 | 35 | 1071.5 |
| 20260502025358 | 11 | 120 | 0.0 | 1.6 | 0.00 | 0.00 | 0.00 | 34 | 1071.6 |
| 20260502024856 | 11 | 122 | 0.0 | 1.6 | 0.00 | 0.00 | 0.00 | 34 | 1071.6 |
| 20260502024354 | 12 | 179 | 0.0 | 3.2 | 0.00 | 0.00 | 0.00 | 34 | 1071.4 |
| 20260502023852 | 12 | 78 | 1.6 | 3.2 | 0.00 | 0.00 | 0.00 | 34 | 1071.4 |
| 20260502023349 | 12 | 0 | 3.2 | 3.2 | 0.00 | 0.00 | 0.00 | 34 | 1071.5 |
| 20260502022847 | 12 | 340 | 0.0 | 3.2 | 0.00 | 0.00 | 0.00 | 34 | 1071.4 |
| 20260502022343 | 12 | 308 | 1.6 | 3.2 | 0.00 | 0.00 | 0.00 | 33 | 1071.5 |
| 20260502021840 | 13 | 311 | 0.0 | 3.2 | 0.00 | 0.00 | 0.00 | 32 | 1071.3 |
| 20260502021337 | 13 | 279 | 3.2 | 4.8 | 0.00 | 0.00 | 0.00 | 32 | 1071.5 |
| 20260502020835 | 12 | 282 | 1.6 | 6.4 | 0.00 | 0.00 | 0.00 | 32 | 1071.4 |
| 20260502020332 | 12 | 301 | 3.2 | 3.2 | 0.00 | 0.00 | 0.00 | 32 | 1071.4 |
| 20260502015829 | 13 | 284 | 3.2 | 4.8 | 0.00 | 0.00 | 0.00 | 31 | 1071.4 |
| 20260502015326 | 13 | 282 | 3.2 | 3.2 | 0.00 | 0.00 | 0.00 | 31 | 1071.6 |
| 20260502014823 | 14 | 285 | 3.2 | 6.4 | 0.00 | 0.00 | 0.00 | 30 | 1071.5 |
| 20260502014320 | 14 | 268 | 4.8 | 4.8 | 0.00 | 0.00 | 0.00 | 29 | 1071.4 |
| 20260502013816 | 15 | 269 | 4.8 | 6.4 | 0.00 | 0.00 | 0.00 | 29 | 1071.5 |
| 20260502013312 | 15 | 283 | 4.8 | 6.4 | 0.00 | 0.00 | 0.00 | 29 | 1071.6 |
| 20260502012809 | 15 | 279 | 6.4 | 8.0 | 0.00 | 0.00 | 0.00 | 28 | 1071.8 |
| 20260502012307 | 16 | 273 | 6.4 | 9.7 | 0.00 | 0.00 | 0.00 | 27 | 1071.6 |
| 20260502011803 | 16 | 272 | 6.4 | 8.0 | 0.00 | 0.00 | 0.00 | 27 | 1071.7 |
| 20260502011259 | 16 | 277 | 6.4 | 8.0 | 0.00 | 0.00 | 0.00 | 26 | 1071.7 |
| 20260502010757 | 17 | 274 | 8.0 | 9.7 | 0.00 | 0.00 | 0.00 | 26 | 1071.6 |
| 20260502010253 | 17 | 281 | 6.4 | 8.0 | 0.00 | 0.00 | 0.00 | 25 | 1071.7 |
| 20260502005750 | 17 | 284 | 8.0 | 12.9 | 0.00 | 0.00 | 0.00 | 24 | 1071.7 |
| 20260502005248 | 17 | 290 | 8.0 | 19.3 | 0.00 | 0.00 | 0.00 | 24 | 1071.8 |
| 20260502004745 | 18 | 273 | 6.4 | 9.7 | 0.00 | 0.00 | 0.00 | 24 | 1071.6 |
| 20260502004241 | 18 | 280 | 8.0 | 12.9 | 0.00 | 0.00 | 0.00 | 23 | 1071.7 |
| 20260502003739 | 18 | 280 | 6.4 | 17.7 | 0.00 | 0.00 | 0.00 | 23 | 1071.8 |
| 20260502003236 | 18 | 276 | 9.7 | 11.3 | 0.00 | 0.00 | 0.00 | 23 | 1071.6 |
| 20260502002731 | 18 | 274 | 8.0 | 11.3 | 0.00 | 0.00 | 0.00 | 23 | 1071.9 |
| 20260502002230 | 18 | 308 | 16.1 | 20.9 | 0.00 | 0.00 | 0.00 | 23 | 1071.9 |
| 20260502001726 | 18 | 280 | 11.3 | 19.3 | 0.00 | 0.00 | 0.00 | 23 | 1071.9 |
| 20260502001225 | 19 | 293 | 11.3 | 17.7 | 0.00 | 0.00 | 0.00 | 23 | 1071.8 |
| 20260502000722 | 19 | 308 | 20.9 | 24.1 | 0.00 | 0.00 | 0.00 | 22 | 1072.1 |
| 20260502000220 | 20 | 272 | 11.3 | 20.9 | 0.00 | 0.00 | 0.00 | 22 | 1072.0 |
| 20260501235715 | 19 | 308 | 11.3 | 20.9 | 0.00 | 0.00 | 0.00 | 22 | 1072.2 |
| 20260501235211 | 19 | 347 | 6.4 | 14.5 | 0.00 | 0.00 | 0.00 | 22 | 1072.1 |
| 20260501234707 | 19 | 318 | 16.1 | 27.4 | 0.00 | 0.00 | 0.00 | 22 | 1072.2 |
| 20260501234205 | 18 | 306 | 12.9 | 24.1 | 0.00 | 0.00 | 0.00 | 23 | 1072.1 |
| 20260501233703 | 18 | 303 | 12.9 | 24.1 | 0.00 | 0.00 | 0.00 | 23 | 1072.3 |
| 20260501233159 | 18 | 318 | 17.7 | 22.5 | 0.00 | 0.00 | 0.00 | 23 | 1072.2 |
| 20260501232655 | 19 | 284 | 11.3 | 14.5 | 0.00 | 0.00 | 0.00 | 22 | 1072.3 |
| 20260501232153 | 19 | 288 | 8.0 | 16.1 | 0.00 | 0.00 | 0.00 | 23 | 1072.1 |
| 20260501231650 | 19 | 281 | 11.3 | 19.3 | 0.00 | 0.00 | 0.00 | 22 | 1072.4 |
| 20260501231148 | 19 | 294 | 3.2 | 8.0 | 0.00 | 0.00 | 0.00 | 23 | 1072.4 |
| 20260501230646 | 19 | 272 | 6.4 | 11.3 | 0.00 | 0.00 | 0.00 | 23 | 1072.4 |
| 20260501230144 | 19 | 278 | 9.7 | 16.1 | 0.00 | 0.00 | 0.00 | 23 | 1072.4 |
| 20260501225642 | 18 | 269 | 12.9 | 17.7 | 0.00 | 0.00 | 0.00 | 23 | 1072.5 |
| 20260501225138 | 19 | 323 | 12.9 | 22.5 | 0.00 | 0.00 | 0.00 | 23 | 1072.6 |
| 20260501224635 | 19 | 281 | 6.4 | 14.5 | 0.00 | 0.00 | 0.00 | 23 | 1072.4 |
| 20260501224132 | 18 | 4 | 14.5 | 19.3 | 0.00 | 0.00 | 0.00 | 23 | 1072.5 |
| 20260501223628 | 18 | 312 | 24.1 | 29.0 | 0.00 | 0.00 | 0.00 | 24 | 1072.6 |
| 20260501223125 | 19 | 317 | 11.3 | 25.7 | 0.00 | 0.00 | 0.00 | 23 | 1072.5 |
| 20260501222621 | 19 | 337 | 9.7 | 22.5 | 0.00 | 0.00 | 0.00 | 23 | 1072.6 |
| 20260501222118 | 18 | 315 | 11.3 | 20.9 | 0.00 | 0.00 | 0.00 | 24 | 1072.6 |
| 20260501221615 | 19 | 271 | 9.7 | 20.9 | 0.00 | 0.00 | 0.00 | 23 | 1073.0 |
| 20260501221113 | 18 | 319 | 8.0 | 12.9 | 0.00 | 0.00 | 0.00 | 24 | 1073.0 |
| 20260501220610 | 19 | 334 | 20.9 | 25.7 | 0.00 | 0.00 | 0.00 | 23 | 1073.1 |
| 20260501220107 | 19 | 304 | 16.1 | 24.1 | 0.00 | 0.00 | 0.00 | 24 | 1073.2 |
| 20260501215603 | 19 | 271 | 17.7 | 22.5 | 0.00 | 0.00 | 0.00 | 24 | 1073.0 |
| 20260501215059 | 19 | 268 | 17.7 | 22.5 | 0.00 | 0.00 | 0.00 | 24 | 1073.4 |
| 20260501214554 | 18 | 283 | 9.7 | 14.5 | 0.00 | 0.00 | 0.00 | 24 | 1073.5 |
| 20260501214050 | 18 | 284 | 11.3 | 14.5 | 0.00 | 0.00 | 0.00 | 24 | 1073.3 |
| 20260501213547 | 19 | 349 | 8.0 | 20.9 | 0.00 | 0.00 | 0.00 | 24 | 1073.4 |
| 20260501213043 | 19 | 323 | 4.8 | 8.0 | 0.00 | 0.00 | 0.00 | 25 | 1073.6 |
| 20260501212539 | 18 | 231 | 8.0 | 9.7 | 0.00 | 0.00 | 0.00 | 26 | 1073.3 |
| 20260501212037 | 18 | 231 | 6.4 | 9.7 | 0.00 | 0.00 | 0.00 | 26 | 1073.7 |
| 20260501211533 | 18 | 261 | 11.3 | 20.9 | 0.00 | 0.00 | 0.00 | 26 | 1073.6 |
| 20260501211032 | 18 | 330 | 6.4 | 11.3 | 0.00 | 0.00 | 0.00 | 26 | 1073.7 |
| 20260501210527 | 18 | 273 | 14.5 | 19.3 | 0.00 | 0.00 | 0.00 | 26 | 1073.7 |
| 20260501210024 | 18 | 264 | 11.3 | 16.1 | 0.00 | 0.00 | 0.00 | 26 | 1073.7 |
| 20260501205521 | 17 | 336 | 0.0 | 12.9 | 0.00 | 0.00 | 0.00 | 27 | 1073.9 |
| 20260501205019 | 17 | 349 | 4.8 | 6.4 | 0.00 | 0.00 | 0.00 | 27 | 1073.9 |
| 20260501204514 | 18 | 289 | 6.4 | 20.9 | 0.00 | 0.00 | 0.00 | 26 | 1074.0 |
| 20260501204010 | 17 | 281 | 0.0 | 6.4 | 0.00 | 0.00 | 0.00 | 28 | 1074.1 |
| 20260501203507 | 18 | 257 | 12.9 | 33.8 | 0.00 | 0.00 | 0.00 | 27 | 1074.1 |
| 20260501203005 | 17 | 328 | 8.0 | 17.7 | 0.00 | 0.00 | 0.00 | 28 | 1074.1 |
| 20260501202501 | 17 | 303 | 19.3 | 20.9 | 0.00 | 0.00 | 0.00 | 28 | 1074.1 |
| 20260501201958 | 17 | 263 | 8.0 | 17.7 | 0.00 | 0.00 | 0.00 | 28 | 1074.1 |
| 20260501201455 | 17 | 263 | 9.7 | 11.3 | 0.00 | 0.00 | 0.00 | 28 | 1074.2 |
| 20260501200952 | 17 | 292 | 11.3 | 17.7 | 0.00 | 0.00 | 0.00 | 30 | 1074.4 |
| 20260501200449 | 16 | 333 | 9.7 | 17.7 | 0.00 | 0.00 | 0.00 | 29 | 1074.1 |
| 20260501195946 | 16 | 248 | 9.7 | 12.9 | 0.00 | 0.00 | 0.00 | 29 | 1074.4 |
| 20260501195443 | 16 | 352 | 4.8 | 11.3 | 0.00 | 0.00 | 0.00 | 29 | 1074.5 |
| 20260501194939 | 16 | 20 | 3.2 | 6.4 | 0.00 | 0.00 | 0.00 | 31 | 1074.6 |
| 20260501194435 | 15 | 353 | 8.0 | 9.7 | 0.00 | 0.00 | 0.00 | 32 | 1074.7 |
| 20260501193931 | 15 | 308 | 16.1 | 27.4 | 0.00 | 0.00 | 0.00 | 31 | 1074.9 |
| 20260501193429 | 16 | 311 | 24.1 | 29.0 | 0.00 | 0.00 | 0.00 | 31 | 1074.8 |
| 20260501192927 | 16 | 244 | 17.7 | 17.7 | 0.00 | 0.00 | 0.00 | 31 | 1074.8 |
| 20260501192424 | 16 | 20 | 6.4 | 9.7 | 0.00 | 0.00 | 0.00 | 32 | 1074.8 |
| 20260501191921 | 15 | 50 | 6.4 | 14.5 | 0.00 | 0.00 | 0.00 | 31 | 1074.8 |
| 20260501191418 | 16 | 339 | 16.1 | 20.9 | 0.00 | 0.00 | 0.00 | 31 | 1074.8 |
| 20260501190915 | 16 | 7 | 4.8 | 11.3 | 0.00 | 0.00 | 0.00 | 32 | 1074.9 |
| 20260501190411 | 15 | 263 | 6.4 | 9.7 | 0.00 | 0.00 | 0.00 | 32 | 1075.0 |
| 20260501185911 | 15 | 224 | 9.7 | 11.3 | 0.00 | 0.00 | 0.00 | 33 | 1075.2 |
| 20260501185408 | 15 | 249 | 4.8 | 16.1 | 0.00 | 0.00 | 0.00 | 32 | 1075.0 |
| 20260501184903 | 15 | 259 | 4.8 | 16.1 | 0.00 | 0.00 | 0.00 | 33 | 1075.2 |
| 20260501184400 | 15 | 262 | 16.1 | 20.9 | 0.00 | 0.00 | 0.00 | 34 | 1075.4 |
| 20260501183855 | 14 | 46 | 3.2 | 4.8 | 0.00 | 0.00 | 0.00 | 34 | 1075.4 |
| 20260501183353 | 14 | 12 | 4.8 | 17.7 | 0.00 | 0.00 | 0.00 | 36 | 1075.3 |
| 20260501182849 | 14 | 12 | 6.4 | 16.1 | 0.00 | 0.00 | 0.00 | 34 | 1075.5 |
| 20260501182346 | 14 | 266 | 6.4 | 14.5 | 0.00 | 0.00 | 0.00 | 35 | 1075.6 |
| 20260501181843 | 13 | 199 | 3.2 | 6.4 | 0.00 | 0.00 | 0.00 | 35 | 1075.6 |
| 20260501181340 | 14 | 288 | 4.8 | 16.1 | 0.00 | 0.00 | 0.00 | 35 | 1075.7 |
| 20260501180837 | 13 | 295 | 3.2 | 12.9 | 0.00 | 0.00 | 0.00 | 36 | 1075.7 |
| 20260501180333 | 13 | 305 | 4.8 | 11.3 | 0.00 | 0.00 | 0.00 | 37 | 1075.7 |
| 20260501175831 | 13 | 359 | 3.2 | 16.1 | 0.00 | 0.00 | 0.00 | 36 | 1075.8 |
| 20260501175327 | 13 | 312 | 14.5 | 19.3 | 0.00 | 0.00 | 0.00 | 36 | 1075.8 |
| 20260501174824 | 13 | 106 | 3.2 | 9.7 | 0.00 | 0.00 | 0.00 | 37 | 1076.0 |
| 20260501174321 | 12 | 148 | 4.8 | 8.0 | 0.00 | 0.00 | 0.00 | 39 | 1076.1 |
| 20260501173819 | 13 | 271 | 9.7 | 14.5 | 0.00 | 0.00 | 0.00 | 38 | 1076.2 |
| 20260501173316 | 12 | 298 | 6.4 | 17.7 | 0.00 | 0.00 | 0.00 | 39 | 1076.1 |
| 20260501172812 | 12 | 269 | 4.8 | 9.7 | 0.00 | 0.00 | 0.00 | 39 | 1076.1 |
| 20260501172307 | 12 | 357 | 8.0 | 14.5 | 0.00 | 0.00 | 0.00 | 39 | 1076.2 |
| 20260501171803 | 12 | 297 | 6.4 | 14.5 | 0.00 | 0.00 | 0.00 | 39 | 1076.2 |
| 20260501171300 | 12 | 298 | 6.4 | 6.4 | 0.00 | 0.00 | 0.00 | 40 | 1076.2 |
| 20260501170756 | 12 | 326 | 6.4 | 12.9 | 0.00 | 0.00 | 0.00 | 39 | 1076.3 |
| 20260501170254 | 11 | 192 | 4.8 | 6.4 | 0.00 | 0.00 | 0.00 | 41 | 1076.3 |
| 20260501165751 | 11 | 238 | 6.4 | 9.7 | 0.00 | 0.00 | 0.00 | 41 | 1076.2 |
| 20260501165249 | 11 | 184 | 4.8 | 4.8 | 0.00 | 0.00 | 0.00 | 41 | 1076.2 |
| 20260501164746 | 11 | 120 | 6.4 | 11.3 | 0.00 | 0.00 | 0.00 | 41 | 1076.2 |
| 20260501164243 | 11 | 163 | 3.2 | 12.9 | 0.00 | 0.00 | 0.00 | 42 | 1076.3 |
| 20260501163739 | 11 | 137 | 6.4 | 12.9 | 0.00 | 0.00 | 0.00 | 41 | 1076.2 |
| 20260501163236 | 11 | 158 | 6.4 | 8.0 | 0.00 | 0.00 | 0.00 | 43 | 1076.1 |
| 20260501162732 | 11 | 217 | 6.4 | 8.0 | 0.00 | 0.00 | 0.00 | 42 | 1076.5 |